Time;durP1;ratioP1;P1;durP2;ratioP2;P2;SDS_P1;SDS_P2;PMS_P1;PMS_P2;Temp;Humidity;BMP_temperature;BMP_pressure;BME280_temperature;BME280_humidity;BME280_pressure;Samples;Min_cycle;Max_cycle;Signal;HPM_P1;HPM_P2
2023/08/21 00:00:38;;;;;;;9.10;7.10;;;;;;;18.65;97.04;97701.23;110044;1244;59690;-66
2023/08/21 00:03:29;;;;;;;8.20;7.40;;;;;;;18.61;97.52;97699.71;110081;1244;59692;-64
2023/08/21 00:06:05;;;;;;;9.10;8.00;;;;;;;18.56;100.00;97700.71;110038;1244;71540;-65
2023/08/21 00:08:36;;;;;;;8.20;7.40;;;;;;;18.55;97.90;97699.19;110021;1244;69247;-64
2023/08/21 00:11:07;;;;;;;8.50;7.60;;;;;;;18.56;98.14;97699.33;110027;1245;69307;-65
2023/08/21 00:13:37;;;;;;;8.70;7.40;;;;;;;18.55;98.17;97702.04;109989;1244;59747;-64
2023/08/21 00:16:11;;;;;;;8.00;6.50;;;;;;;18.57;95.39;97701.68;109993;1244;59684;-65
2023/08/21 00:18:44;;;;;;;9.90;7.60;;;;;;;18.56;96.27;97701.60;109982;1242;70711;-66
2023/08/21 00:21:17;;;;;;;9.10;7.90;;;;;;;18.51;94.47;97700.17;109997;1243;68573;-65
2023/08/21 00:23:47;;;;;;;8.20;7.40;;;;;;;18.45;96.91;97703.11;110071;1244;68633;-66
2023/08/21 00:26:19;;;;;;;9.30;8.10;;;;;;;18.41;92.52;97705.44;110013;1244;59779;-65
2023/08/21 00:28:50;;;;;;;9.40;8.40;;;;;;;18.36;93.02;97708.34;109856;1245;59732;-64
2023/08/21 00:31:22;;;;;;;10.20;8.90;;;;;;;18.30;99.03;97702.48;109997;1244;71460;-65
2023/08/21 00:33:53;;;;;;;9.10;7.90;;;;;;;18.22;100.00;97701.64;110020;1244;68460;-65
2023/08/21 00:36:25;;;;;;;9.80;8.80;;;;;;;18.16;100.00;97706.48;110028;1244;69333;-65
2023/08/21 00:39:00;;;;;;;10.20;8.60;;;;;;;18.10;100.00;97703.21;110042;1242;59748;-64
2023/08/21 00:41:33;;;;;;;10.30;9.20;;;;;;;18.06;100.00;97705.02;109796;1244;59754;-65
2023/08/21 00:44:04;;;;;;;11.40;9.40;;;;;;;18.03;100.00;97706.86;110021;1244;70474;-65
2023/08/21 00:46:35;;;;;;;9.30;7.90;;;;;;;18.02;100.00;97707.20;109921;1244;68711;-65
2023/08/21 00:49:13;;;;;;;9.10;7.80;;;;;;;18.00;100.00;97706.11;109720;1244;69888;-64
2023/08/21 00:51:45;;;;;;;11.00;8.60;;;;;;;17.98;100.00;97703.13;109799;1248;59723;-64
2023/08/21 00:54:15;;;;;;;8.50;7.70;;;;;;;17.98;100.00;97702.30;109903;1243;59763;-64
2023/08/21 00:56:47;;;;;;;10.30;8.70;;;;;;;17.97;100.00;97701.70;109746;1246;71403;-65
2023/08/21 00:59:22;;;;;;;9.20;8.20;;;;;;;17.94;100.00;97699.69;109996;1244;68626;-65
2023/08/21 01:01:52;;;;;;;10.60;9.50;;;;;;;17.92;99.32;97701.42;109992;1244;68365;-65
2023/08/21 01:04:23;;;;;;;10.90;8.50;;;;;;;17.90;99.61;97708.69;110116;1245;60097;-65
2023/08/21 01:06:58;;;;;;;10.30;8.90;;;;;;;17.88;99.76;97707.30;109986;1244;59705;-65
2023/08/21 01:09:46;;;;;;;9.90;8.60;;;;;;;17.88;100.00;97705.57;110035;1244;71457;-64
2023/08/21 01:12:53;;;;;;;8.60;7.60;;;;;;;17.88;98.73;97704.47;110072;1244;69095;-65
2023/08/21 01:15:24;;;;;;;8.50;7.40;;;;;;;17.88;99.92;97710.31;110107;1244;69419;-65
2023/08/21 01:17:56;;;;;;;8.40;6.50;;;;;;;17.88;100.00;97708.20;110097;1244;59732;-65
2023/08/21 01:20:28;;;;;;;8.50;7.60;;;;;;;17.88;100.00;97708.33;110055;1247;59709;-65
2023/08/21 01:23:06;;;;;;;8.90;7.80;;;;;;;17.87;99.28;97706.70;110042;1245;71486;-65
2023/08/21 01:25:43;;;;;;;10.30;7.90;;;;;;;17.85;97.09;97704.41;110120;1243;68788;-64
2023/08/21 01:28:18;;;;;;;8.40;7.00;;;;;;;17.81;99.14;97706.91;110054;1244;68565;-64
2023/08/21 01:30:55;;;;;;;9.20;7.70;;;;;;;17.78;99.93;97707.71;110030;1245;59698;-64
2023/08/21 01:33:37;;;;;;;8.90;7.30;;;;;;;17.73;98.66;97709.09;109735;1247;59745;-66
2023/08/21 01:36:09;;;;;;;8.50;7.00;;;;;;;17.69;100.00;97710.38;110082;1244;71445;-66
2023/08/21 01:38:49;;;;;;;9.40;8.30;;;;;;;17.65;100.00;97709.94;109870;1243;68446;-65
2023/08/21 01:41:23;;;;;;;9.50;7.90;;;;;;;17.60;100.00;97712.77;110065;1244;69349;-65
2023/08/21 01:43:59;;;;;;;9.40;7.70;;;;;;;17.58;99.51;97713.77;110078;1245;59756;-65
2023/08/21 01:46:31;;;;;;;8.20;7.30;;;;;;;17.54;99.44;97716.59;110118;1244;59640;-65
2023/08/21 01:49:02;;;;;;;8.80;7.90;;;;;;;17.50;98.41;97713.08;110111;1243;70540;-65
2023/08/21 01:51:34;;;;;;;9.50;7.70;;;;;;;17.46;100.00;97711.28;110008;1246;69286;-65
2023/08/21 01:54:06;;;;;;;10.50;8.60;;;;;;;17.43;99.56;97710.39;110093;1244;68631;-65
2023/08/21 01:56:37;;;;;;;9.80;8.80;;;;;;;17.40;98.89;97711.77;109902;1248;59737;-64
2023/08/21 01:59:08;;;;;;;10.10;8.70;;;;;;;17.35;98.96;97709.59;110059;1244;59738;-66
2023/08/21 02:01:41;;;;;;;10.10;8.60;;;;;;;17.30;99.39;97708.48;110100;1243;71395;-64
2023/08/21 02:04:14;;;;;;;11.00;8.80;;;;;;;17.26;99.45;97713.55;110114;1243;68674;-64
2023/08/21 02:06:46;;;;;;;9.20;7.80;;;;;;;17.22;99.26;97711.83;110091;1244;69112;-65
2023/08/21 02:09:20;;;;;;;7.80;6.90;;;;;;;17.19;99.82;97710.77;110078;1244;59695;-64
2023/08/21 02:11:51;;;;;;;8.70;7.80;;;;;;;17.16;100.00;97707.02;110082;1245;59688;-64
2023/08/21 02:14:25;;;;;;;8.40;7.40;;;;;;;17.13;100.00;97704.27;110116;1244;71424;-64
2023/08/21 02:16:56;;;;;;;8.50;7.20;;;;;;;17.10;99.52;97705.79;109969;1247;69542;-65
2023/08/21 02:19:28;;;;;;;8.40;7.50;;;;;;;17.08;100.00;97707.27;109915;1243;69313;-65
2023/08/21 02:22:01;;;;;;;9.20;7.40;;;;;;;17.03;100.00;97705.73;109950;1245;59834;-64
2023/08/21 02:24:38;;;;;;;10.40;8.10;;;;;;;17.01;100.00;97705.10;109947;1244;59766;-64
2023/08/21 02:27:09;;;;;;;12.10;8.60;;;;;;;16.98;100.00;97702.86;110082;1244;70611;-64
2023/08/21 02:29:41;;;;;;;8.80;7.80;;;;;;;16.96;100.00;97702.39;110105;1244;69092;-64
2023/08/21 02:32:14;;;;;;;9.30;8.30;;;;;;;16.93;100.00;97701.82;110069;1244;68945;-65
2023/08/21 02:34:45;;;;;;;8.80;7.60;;;;;;;16.89;100.00;97700.02;110096;1244;60000;-64
2023/08/21 02:37:17;;;;;;;10.60;8.40;;;;;;;16.87;100.00;97699.90;110067;1244;59700;-65
2023/08/21 02:39:49;;;;;;;8.80;7.50;;;;;;;16.83;100.00;97697.50;110115;1245;70561;-65
2023/08/21 02:42:28;;;;;;;9.10;7.90;;;;;;;16.79;100.00;97694.83;109995;1246;69301;-64
2023/08/21 02:45:03;;;;;;;8.40;7.50;;;;;;;16.76;100.00;97700.70;110062;1244;69283;-64
2023/08/21 02:47:42;;;;;;;10.20;8.00;;;;;;;16.74;100.00;97701.77;110024;1244;59763;-66
2023/08/21 02:50:13;;;;;;;9.90;8.40;;;;;;;16.70;100.00;97704.42;110068;1245;59701;-64
2023/08/21 02:52:44;;;;;;;8.60;7.60;;;;;;;16.66;100.00;97710.59;110119;1244;71463;-65
2023/08/21 02:55:16;;;;;;;8.90;7.30;;;;;;;16.62;100.00;97711.44;109919;1245;68505;-64
2023/08/21 02:57:47;;;;;;;8.50;7.40;;;;;;;16.59;100.00;97710.55;110092;1243;69272;-64
2023/08/21 03:00:18;;;;;;;12.00;9.20;;;;;;;16.55;100.00;97707.92;109965;1245;59757;-64
2023/08/21 03:02:50;;;;;;;8.30;7.50;;;;;;;16.53;100.00;97713.42;110088;1244;60081;-64
2023/08/21 03:05:21;;;;;;;9.00;7.70;;;;;;;16.51;100.00;97713.04;110139;1245;70523;-63
2023/08/21 03:07:53;;;;;;;11.40;8.20;;;;;;;16.49;100.00;97713.55;110050;1245;69648;-64
2023/08/21 03:10:27;;;;;;;8.70;7.50;;;;;;;16.49;100.00;97714.97;109912;1245;69430;-63
2023/08/21 03:12:58;;;;;;;9.90;8.50;;;;;;;16.47;100.00;97716.23;110100;1244;59682;-66
2023/08/21 03:15:29;;;;;;;8.90;7.40;;;;;;;16.46;100.00;97717.23;109942;1245;59698;-64
2023/08/21 03:18:00;;;;;;;11.10;8.80;;;;;;;16.42;100.00;97717.77;110022;1245;70437;-64
2023/08/21 03:20:30;;;;;;;8.90;7.90;;;;;;;16.39;100.00;97721.73;109782;1248;69224;-64
2023/08/21 03:23:01;;;;;;;8.40;7.40;;;;;;;16.36;100.00;97719.00;110105;1244;69316;-64
2023/08/21 03:25:32;;;;;;;8.40;6.80;;;;;;;16.35;100.00;97725.80;110101;1244;59757;-64
2023/08/21 03:28:05;;;;;;;9.00;7.60;;;;;;;16.34;100.00;97723.94;110087;1244;59757;-65
2023/08/21 03:30:34;;;;;;;9.10;7.40;;;;;;;16.33;100.00;97722.27;109962;1246;71403;-64
2023/08/21 03:33:05;;;;;;;;;;;;;;;16.33;100.00;97720.89;109888;1245;69940;-66
2023/08/21 03:35:35;;;;;;;7.90;6.70;;;;;;;16.31;100.00;97720.00;109892;1246;69336;-66
2023/08/21 03:38:08;;;;;;;8.20;6.60;;;;;;;16.29;100.00;97722.80;110070;1245;59830;-64
2023/08/21 03:40:45;;;;;;;8.00;6.10;;;;;;;16.29;100.00;97728.24;109945;1243;59679;-65
2023/08/21 03:43:17;;;;;;;8.00;6.60;;;;;;;16.29;100.00;97728.44;109842;1246;69975;-65
2023/08/21 03:45:47;;;;;;;7.70;6.90;;;;;;;16.29;100.00;97726.52;109816;1243;69294;-65
2023/08/21 03:48:18;;;;;;;8.50;7.20;;;;;;;16.29;100.00;97729.66;109885;1244;69877;-65
2023/08/21 03:50:50;;;;;;;8.00;7.20;;;;;;;16.28;100.00;97731.50;109778;1244;59706;-66
2023/08/21 03:53:20;;;;;;;8.50;7.60;;;;;;;16.30;100.00;97734.62;109887;1247;59720;-65
2023/08/21 03:55:52;;;;;;;10.70;8.50;;;;;;;16.34;100.00;97735.88;110039;1244;71339;-66
2023/08/21 03:58:26;;;;;;;11.60;8.70;;;;;;;16.35;100.00;97739.67;109980;1243;68589;-66
2023/08/21 04:00:56;;;;;;;10.10;8.70;;;;;;;16.37;100.00;97737.91;110058;1245;68523;-65
2023/08/21 04:03:27;;;;;;;9.00;7.30;;;;;;;16.39;100.00;97738.82;109840;1246;59700;-65
2023/08/21 04:05:58;;;;;;;9.70;7.40;;;;;;;16.41;100.00;97740.88;109802;1248;59737;-65
2023/08/21 04:08:29;;;;;;;8.50;7.50;;;;;;;16.45;100.00;97741.39;110116;1245;71957;-64
2023/08/21 04:11:00;;;;;;;8.80;7.20;;;;;;;16.50;100.00;97737.55;110051;1245;69181;-65
2023/08/21 04:13:30;;;;;;;9.40;7.90;;;;;;;16.59;100.00;97734.35;110035;1245;69865;-66
2023/08/21 04:16:00;;;;;;;13.00;8.20;;;;;;;16.73;100.00;97733.68;110116;1244;59782;-66
2023/08/21 04:18:30;;;;;;;8.50;7.60;;;;;;;16.93;100.00;97734.67;110133;1244;59753;-64
2023/08/21 04:21:10;;;;;;;9.00;7.40;;;;;;;17.10;100.00;97740.13;110122;1245;71528;-64
2023/08/21 04:23:40;;;;;;;8.70;7.80;;;;;;;17.25;100.00;97744.66;109942;1244;68396;-65
2023/08/21 04:26:09;;;;;;;10.00;8.70;;;;;;;17.47;100.00;97742.05;109984;1246;69917;-64
2023/08/21 04:28:38;;;;;;;9.60;8.50;;;;;;;17.70;100.00;97743.89;110110;1244;59753;-65
2023/08/21 04:31:09;;;;;;;9.10;8.10;;;;;;;17.86;100.00;97745.20;109936;1244;59713;-65
2023/08/21 04:33:38;;;;;;;9.10;8.20;;;;;;;17.89;100.00;97749.88;110086;1244;71943;-64
2023/08/21 04:36:15;;;;;;;8.90;7.60;;;;;;;17.97;100.00;97751.04;110116;1243;69971;-64
2023/08/21 04:38:47;;;;;;;8.10;7.30;;;;;;;18.20;100.00;97753.14;109928;1246;69155;-65
2023/08/21 04:41:18;;;;;;;9.00;7.70;;;;;;;18.50;100.00;97754.40;109941;1246;59766;-65
2023/08/21 04:43:48;;;;;;;8.60;7.70;;;;;;;18.80;100.00;97757.11;109866;1244;59748;-64
2023/08/21 04:46:19;;;;;;;8.30;7.50;;;;;;;19.04;100.00;97760.82;109821;1244;72029;-64
2023/08/21 04:48:50;;;;;;;8.90;7.60;;;;;;;19.24;99.31;97762.52;109959;1247;70271;-64
2023/08/21 04:51:20;;;;;;;8.80;7.90;;;;;;;19.46;97.37;97760.04;109880;1243;69242;-64
2023/08/21 04:53:50;;;;;;;8.00;7.30;;;;;;;19.80;97.29;97763.63;109775;1244;59710;-64
2023/08/21 04:56:20;;;;;;;8.00;6.60;;;;;;;20.13;99.54;97763.80;110120;1244;59685;-64
2023/08/21 04:58:49;;;;;;;8.10;7.20;;;;;;;20.41;95.55;97767.56;109962;1243;72500;-64
2023/08/21 05:01:18;;;;;;;;;;;;;;;20.67;91.32;97762.66;109828;1245;69300;-64
2023/08/21 05:03:50;;;;;;;7.50;6.70;;;;;;;20.95;91.96;97762.98;110076;1245;69146;-65
2023/08/21 05:06:19;;;;;;;9.70;8.70;;;;;;;21.05;88.79;97769.25;109752;1245;59709;-65
2023/08/21 05:08:49;;;;;;;7.90;7.10;;;;;;;21.21;89.53;97768.59;110073;1245;60089;-65
2023/08/21 05:11:18;;;;;;;8.10;7.30;;;;;;;21.41;91.21;97765.38;109839;1245;71396;-65
2023/08/21 05:13:48;;;;;;;9.30;8.40;;;;;;;21.44;87.55;97767.13;110059;1245;69226;-65
2023/08/21 05:16:18;;;;;;;8.70;7.90;;;;;;;21.56;87.51;97769.19;109717;1244;69322;-65
2023/08/21 05:18:48;;;;;;;8.50;7.70;;;;;;;21.78;89.58;97771.62;109903;1244;59747;-65
2023/08/21 05:21:18;;;;;;;;;;;;;;;22.07;88.23;97770.61;110121;1245;59755;-63
2023/08/21 05:23:48;;;;;;;7.30;6.70;;;;;;;22.24;81.52;97772.63;110093;1245;71957;-66
2023/08/21 05:26:17;;;;;;;9.10;8.10;;;;;;;22.41;81.62;97775.27;109877;1247;69817;-64
2023/08/21 05:28:47;;;;;;;10.20;8.70;;;;;;;22.36;81.73;97778.69;110075;1244;69743;-66
2023/08/21 05:31:15;;;;;;;8.90;8.00;;;;;;;22.40;80.50;97777.54;109828;1244;59751;-66
2023/08/21 05:33:52;;;;;;;7.80;7.10;;;;;;;22.59;80.05;97775.46;110061;1245;59679;-64
2023/08/21 05:36:23;;;;;;;9.40;8.50;;;;;;;22.70;78.51;97774.95;109841;1247;71348;-66
2023/08/21 05:38:54;;;;;;;8.80;7.60;;;;;;;22.83;77.10;97772.64;109848;1245;68558;-63
2023/08/21 05:41:24;;;;;;;7.60;6.90;;;;;;;23.09;77.39;97772.79;109775;1244;68517;-64
2023/08/21 05:43:54;;;;;;;8.70;7.50;;;;;;;23.17;74.13;97772.80;109820;1248;59715;-64
2023/08/21 05:46:24;;;;;;;9.20;7.90;;;;;;;23.25;73.42;97774.33;110094;1245;59640;-66
2023/08/21 05:48:54;;;;;;;8.60;7.70;;;;;;;23.42;74.53;97768.70;110100;1245;71537;-65
2023/08/21 05:51:23;;;;;;;9.00;7.90;;;;;;;23.44;74.52;97768.12;110099;1244;68605;-66
2023/08/21 05:53:53;;;;;;;11.70;8.60;;;;;;;23.53;74.17;97769.55;110094;1245;68513;-65
2023/08/21 05:56:23;;;;;;;9.20;8.30;;;;;;;23.38;73.10;97769.11;110106;1244;59730;-66
2023/08/21 05:58:52;;;;;;;9.00;8.10;;;;;;;23.53;73.56;97773.13;109976;1246;59679;-64
2023/08/21 06:01:24;;;;;;;9.40;8.50;;;;;;;23.71;74.61;97777.25;109869;1248;71657;-65
2023/08/21 06:03:54;;;;;;;9.30;8.40;;;;;;;23.92;74.25;97779.40;109966;1247;68746;-65
2023/08/21 06:06:47;;;;;;;8.80;8.00;;;;;;;24.01;71.99;97781.88;110082;1243;68639;-63
2023/08/21 06:09:17;;;;;;;9.10;7.80;;;;;;;23.83;71.19;97778.84;109979;1245;59897;-64
2023/08/21 06:11:47;;;;;;;10.20;9.10;;;;;;;24.09;71.91;97777.80;110108;1245;59687;-65
2023/08/21 06:14:17;;;;;;;9.20;8.30;;;;;;;24.46;71.63;97774.77;109946;1244;70524;-65
2023/08/21 06:16:46;;;;;;;9.20;8.40;;;;;;;24.66;70.65;97776.11;109856;1245;69467;-64
2023/08/21 06:19:15;;;;;;;8.80;7.90;;;;;;;24.64;69.73;97775.22;109848;1247;69136;-63
2023/08/21 06:21:45;;;;;;;8.90;8.00;;;;;;;24.64;68.48;97775.34;109849;1248;59751;-66
2023/08/21 06:24:14;;;;;;;10.70;7.90;;;;;;;25.14;69.20;97768.98;109784;1246;59731;-65
2023/08/21 06:26:43;;;;;;;9.30;8.40;;;;;;;25.54;66.47;97761.23;109760;1243;71537;-65
2023/08/21 06:29:13;;;;;;;10.40;9.10;;;;;;;25.66;64.91;97757.52;109797;1248;69235;-65
2023/08/21 06:31:42;;;;;;;9.20;8.30;;;;;;;25.75;65.60;97759.45;109735;1246;69866;-65
2023/08/21 06:34:12;;;;;;;10.10;9.20;;;;;;;25.80;65.23;97758.80;109762;1247;59742;-64
2023/08/21 06:36:42;;;;;;;10.50;9.20;;;;;;;25.56;66.46;97759.14;109868;1247;59653;-63
2023/08/21 06:39:11;;;;;;;;;;;;;;;25.82;65.88;97759.02;109865;1244;71324;-64
2023/08/21 06:41:40;;;;;;;;;;;;;;;26.01;65.18;97762.74;109783;1245;69970;-64
2023/08/21 06:44:14;;;;;;;10.40;9.10;;;;;;;26.09;63.80;97764.59;109742;1247;69366;-63
2023/08/21 06:46:43;;;;;;;8.10;7.30;;;;;;;26.13;62.56;97762.30;109676;1247;59700;-64
2023/08/21 06:49:13;;;;;;;8.00;6.90;;;;;;;26.02;60.71;97764.82;109689;1244;59694;-63
2023/08/21 06:51:42;;;;;;;9.20;7.60;;;;;;;26.09;60.21;97767.08;109768;1244;71061;-66
2023/08/21 06:54:11;;;;;;;10.20;8.10;;;;;;;26.41;59.36;97766.48;109770;1247;69288;-63
2023/08/21 06:56:40;;;;;;;;;;;;;;;26.77;58.16;97772.23;109804;1248;69806;-64
2023/08/21 06:59:09;;;;;;;8.80;7.40;;;;;;;26.86;57.78;97775.84;109703;1247;60145;-63
2023/08/21 07:01:38;;;;;;;8.10;7.30;;;;;;;27.13;56.53;97775.55;109828;1245;59744;-63
2023/08/21 07:04:08;;;;;;;9.20;8.30;;;;;;;27.30;55.06;97776.00;109761;1247;71978;-64
2023/08/21 07:06:37;;;;;;;7.90;7.20;;;;;;;27.51;55.54;97775.67;109866;1246;69634;-65
2023/08/21 07:09:06;;;;;;;;;;;;;;;27.63;55.58;97773.14;109721;1247;68541;-63
2023/08/21 07:11:35;;;;;;;;;;;;;;;28.08;55.21;97770.97;109848;1248;59694;-63
2023/08/21 07:14:03;;;;;;;7.90;7.10;;;;;;;28.33;54.23;97769.52;109791;1248;59698;-65
2023/08/21 07:16:33;;;;;;;7.20;6.50;;;;;;;28.64;53.34;97765.23;109755;1247;72653;-63
2023/08/21 07:19:02;;;;;;;;;;;;;;;28.53;52.95;97766.91;109253;1248;681712;-64
2023/08/21 07:21:35;;;;;;;9.50;7.80;;;;;;;28.63;53.17;97765.34;110036;1245;69204;-64
2023/08/21 07:24:05;;;;;;;9.30;8.10;;;;;;;28.94;52.37;97759.81;110091;1244;59732;-64
2023/08/21 07:26:34;;;;;;;6.70;6.10;;;;;;;28.94;51.40;97762.58;109845;1248;59749;-63
2023/08/21 07:29:05;;;;;;;6.80;6.20;;;;;;;29.24;50.14;97748.95;110125;1245;70593;-64
2023/08/21 07:31:34;;;;;;;6.40;5.80;;;;;;;29.36;49.33;97753.75;110081;1245;69741;-64
2023/08/21 07:34:04;;;;;;;7.70;7.00;;;;;;;29.73;48.61;97748.94;109972;1245;68735;-64
2023/08/21 07:36:33;;;;;;;;;;;;;;;29.99;49.37;97749.65;110060;1245;59728;-63
2023/08/21 07:39:02;;;;;;;6.50;5.90;;;;;;;30.25;48.86;97752.82;110065;1245;59717;-64
2023/08/21 07:41:31;;;;;;;6.60;6.00;;;;;;;30.48;48.89;97752.84;110081;1245;71936;-64
2023/08/21 07:43:59;;;;;;;;;;;;;;;30.69;46.21;97751.81;110130;1245;69249;-63
2023/08/21 07:46:28;;;;;;;7.50;6.70;;;;;;;30.74;46.84;97752.60;110093;1245;69871;-64
2023/08/21 07:48:57;;;;;;;8.80;6.80;;;;;;;30.72;47.59;97753.18;110070;1245;59689;-64
2023/08/21 07:51:27;;;;;;;7.30;6.60;;;;;;;30.92;47.62;97753.41;110049;1245;59688;-65
2023/08/21 07:53:56;;;;;;;6.70;6.10;;;;;;;30.94;47.08;97751.84;110107;1245;71419;-64
2023/08/21 07:56:28;;;;;;;7.10;6.40;;;;;;;30.85;45.54;97750.70;110078;1245;69685;-64
2023/08/21 07:58:57;;;;;;;6.80;6.20;;;;;;;31.06;45.95;97749.82;110082;1245;69300;-64
2023/08/21 08:01:27;;;;;;;6.50;5.80;;;;;;;31.42;44.97;97749.48;110094;1245;59737;-66
2023/08/21 08:03:56;;;;;;;7.90;7.10;;;;;;;31.83;46.15;97747.94;110024;1245;59679;-66
2023/08/21 08:06:25;;;;;;;7.70;6.90;;;;;;;32.26;45.57;97747.77;110125;1244;71252;-66
2023/08/21 08:08:54;;;;;;;7.30;6.70;;;;;;;32.21;43.94;97745.67;109822;1247;69698;-65
2023/08/21 08:11:23;;;;;;;8.40;7.60;;;;;;;31.32;43.70;97738.91;109849;1244;69261;-66
2023/08/21 08:13:54;;;;;;;8.10;7.40;;;;;;;31.89;44.52;97739.92;109759;1244;59683;-64
2023/08/21 08:16:23;;;;;;;7.80;7.00;;;;;;;32.21;44.08;97745.27;109960;1247;59640;-63
2023/08/21 08:18:52;;;;;;;9.20;7.70;;;;;;;32.37;43.56;97743.13;109779;1246;72162;-67
2023/08/21 08:21:21;;;;;;;8.10;7.30;;;;;;;32.35;43.74;97744.00;109936;1248;69287;-65
2023/08/21 08:23:50;;;;;;;7.10;6.40;;;;;;;32.57;43.08;97741.63;109830;1248;69922;-67
2023/08/21 08:26:19;;;;;;;7.70;7.00;;;;;;;32.33;42.19;97739.19;109814;1246;59672;-67
2023/08/21 08:28:48;;;;;;;10.20;8.20;;;;;;;32.81;42.62;97740.42;109893;1244;59728;-67
2023/08/21 08:31:18;;;;;;;7.40;6.70;;;;;;;32.42;42.51;97739.02;109962;1245;71419;-67
2023/08/21 08:33:48;;;;;;;7.70;6.70;;;;;;;32.66;43.06;97739.73;109780;1248;69730;-67
2023/08/21 08:36:17;;;;;;;7.90;7.10;;;;;;;33.17;43.09;97744.35;109749;1247;69281;-67
2023/08/21 08:38:46;;;;;;;8.10;7.40;;;;;;;33.57;41.75;97738.70;109915;1248;59741;-68
2023/08/21 08:41:47;;;;;;;7.70;6.90;;;;;;;33.29;41.08;97739.39;109791;1248;59638;-67
2023/08/21 08:44:17;;;;;;;8.10;7.30;;;;;;;33.29;40.88;97734.98;109878;1246;71630;-65
2023/08/21 08:46:46;;;;;;;7.60;6.90;;;;;;;33.35;41.25;97734.96;109806;1244;69234;-67
2023/08/21 08:49:15;;;;;;;8.10;7.40;;;;;;;33.76;40.44;97735.41;109841;1246;69297;-67
2023/08/21 08:51:46;;;;;;;7.90;7.20;;;;;;;34.08;39.76;97733.81;109778;1248;59729;-67
2023/08/21 08:54:17;;;;;;;8.50;7.70;;;;;;;34.17;38.54;97729.13;109811;1244;59706;-66
2023/08/21 08:56:46;;;;;;;7.80;7.00;;;;;;;34.47;38.46;97730.80;109917;1247;71373;-66
2023/08/21 08:59:17;;;;;;;7.90;7.20;;;;;;;34.67;37.92;97730.92;109979;1244;69824;-65
2023/08/21 09:01:46;;;;;;;8.70;7.80;;;;;;;34.84;37.68;97734.00;109958;1246;69555;-65
2023/08/21 09:04:16;;;;;;;8.30;7.50;;;;;;;34.95;37.42;97728.39;109798;1245;59648;-66
2023/08/21 09:06:45;;;;;;;8.50;7.80;;;;;;;34.64;36.86;97727.48;109864;1246;59788;-66
2023/08/21 09:09:14;;;;;;;10.20;9.30;;;;;;;33.94;37.20;97729.45;109807;1246;71434;-66
2023/08/21 09:11:45;;;;;;;9.60;8.70;;;;;;;34.23;37.34;97728.43;109839;1246;69850;-65
2023/08/21 09:14:14;;;;;;;7.30;6.70;;;;;;;34.29;37.88;97727.41;109837;1246;69868;-65
2023/08/21 09:17:03;;;;;;;8.00;7.30;;;;;;;34.81;37.20;97727.50;109801;1244;59681;-66
2023/08/21 09:19:33;;;;;;;8.40;7.60;;;;;;;34.81;36.96;97724.20;109837;1244;59637;-65
2023/08/21 09:22:14;;;;;;;9.40;8.40;;;;;;;34.18;38.60;97721.65;109956;1244;71399;-65
2023/08/21 09:25:00;;;;;;;11.20;10.10;;;;;;;35.04;37.35;97718.50;109844;1246;69805;-66
2023/08/21 09:27:30;;;;;;;8.80;7.90;;;;;;;34.83;36.59;97719.59;109879;1244;69825;-65
2023/08/21 09:30:01;;;;;;;11.10;10.00;;;;;;;35.11;36.59;97714.64;109924;1246;59742;-65
2023/08/21 09:32:31;;;;;;;9.00;7.90;;;;;;;35.11;35.94;97714.01;109815;1246;59750;-65
2023/08/21 09:35:02;;;;;;;10.30;9.10;;;;;;;35.45;35.95;97712.03;109896;1245;71985;-66
2023/08/21 09:37:31;;;;;;;8.10;7.30;;;;;;;35.90;35.54;97711.41;109830;1245;69805;-66
2023/08/21 09:40:07;;;;;;;9.10;8.20;;;;;;;36.33;34.47;97707.55;109784;1247;69913;-65
2023/08/21 09:42:36;;;;;;;8.00;7.20;;;;;;;36.12;33.89;97703.98;109785;1248;59770;-66
2023/08/21 09:45:07;;;;;;;8.80;8.10;;;;;;;36.76;33.79;97705.86;109838;1246;59750;-65
2023/08/21 09:47:43;;;;;;;10.90;9.80;;;;;;;36.73;33.32;97703.07;109903;1244;71855;-66
2023/08/21 09:50:13;;;;;;;7.50;6.80;;;;;;;36.74;32.69;97703.79;109866;1246;69869;-67
2023/08/21 09:52:44;;;;;;;10.80;9.90;;;;;;;36.32;33.06;97702.66;109901;1244;69349;-66
2023/08/21 09:55:14;;;;;;;8.30;7.50;;;;;;;36.20;32.71;97700.96;109814;1246;59753;-67
2023/08/21 09:57:45;;;;;;;8.40;7.60;;;;;;;35.90;34.07;97697.01;110010;1244;59706;-64
2023/08/21 10:00:20;;;;;;;8.70;7.90;;;;;;;36.39;33.39;97700.83;109939;1244;71642;-66
2023/08/21 10:02:51;;;;;;;7.90;7.10;;;;;;;36.81;32.96;97702.80;109868;1244;68806;-65
2023/08/21 10:05:21;;;;;;;7.40;6.70;;;;;;;36.55;33.29;97698.02;109751;1244;68470;-65
2023/08/21 10:07:51;;;;;;;8.90;8.00;;;;;;;36.34;32.85;97701.08;109737;1244;59684;-65
2023/08/21 10:10:20;;;;;;;7.20;6.50;;;;;;;36.72;32.75;97702.05;109758;1244;59754;-66
2023/08/21 10:12:50;;;;;;;7.60;7.00;;;;;;;36.86;32.60;97698.98;109753;1253;71357;-65
2023/08/21 10:15:19;;;;;;;6.10;5.50;;;;;;;37.18;32.75;97694.81;109855;1246;69819;-66
2023/08/21 10:17:57;;;;;;;6.40;5.70;;;;;;;37.14;32.21;97689.40;109728;1244;70347;-66
2023/08/21 10:20:29;;;;;;;6.90;6.20;;;;;;;37.75;31.79;97687.27;109744;1245;59701;-66
2023/08/21 10:23:02;;;;;;;7.20;6.60;;;;;;;37.85;32.32;97682.80;109757;1247;59660;-66
2023/08/21 10:25:31;;;;;;;9.60;8.60;;;;;;;38.52;31.04;97686.22;109807;1246;71247;-66
2023/08/21 10:28:03;;;;;;;6.80;6.20;;;;;;;38.14;30.22;97681.77;109725;1244;69945;-66
2023/08/21 10:30:31;;;;;;;7.90;7.20;;;;;;;37.46;31.08;97685.31;109734;1248;69166;-66
2023/08/21 10:33:01;;;;;;;7.90;7.20;;;;;;;37.51;30.76;97684.36;109885;1243;59656;-66
2023/08/21 10:35:31;;;;;;;7.70;7.00;;;;;;;37.40;30.96;97682.81;109782;1248;59650;-66
2023/08/21 10:38:11;;;;;;;7.20;6.60;;;;;;;38.10;30.65;97680.05;109863;1246;71964;-66
2023/08/21 10:41:00;;;;;;;6.80;6.10;;;;;;;37.93;30.30;97677.80;109781;1246;69182;-66
2023/08/21 10:43:44;;;;;;;7.50;6.90;;;;;;;38.45;29.47;97679.70;109800;1248;69749;-66
2023/08/21 10:46:15;;;;;;;6.80;5.90;;;;;;;37.98;30.29;97675.15;109758;1248;59735;-66
2023/08/21 10:48:44;;;;;;;7.30;6.70;;;;;;;38.32;31.32;97668.66;109858;1247;59702;-66
2023/08/21 10:51:13;;;;;;;7.00;6.40;;;;;;;39.09;30.21;97668.89;109876;1248;72049;-66
2023/08/21 10:53:42;;;;;;;7.40;6.80;;;;;;;39.60;29.51;97669.24;109787;1244;68660;-66
2023/08/21 10:56:12;;;;;;;6.60;6.00;;;;;;;39.55;28.42;97664.98;109770;1247;69896;-66
2023/08/21 10:58:42;;;;;;;6.60;6.00;;;;;;;39.43;29.24;97664.69;109751;1244;59760;-66
2023/08/21 11:01:13;;;;;;;6.40;5.60;;;;;;;39.36;28.92;97664.41;109757;1246;59701;-66
2023/08/21 11:03:46;;;;;;;6.40;5.90;;;;;;;39.50;29.25;97665.04;109786;1245;72429;-66
2023/08/21 11:06:19;;;;;;;5.30;4.80;;;;;;;40.05;29.27;97659.58;109940;1246;70201;-65
2023/08/21 11:08:47;;;;;;;5.20;4.70;;;;;;;40.68;28.58;97660.56;109866;1245;69096;-66
2023/08/21 11:11:17;;;;;;;6.10;5.60;;;;;;;40.72;27.73;97660.15;109781;1246;59729;-66
2023/08/21 11:13:53;;;;;;;7.10;6.20;;;;;;;39.66;27.28;97655.60;109820;1245;59706;-66
2023/08/21 11:16:24;;;;;;;5.90;5.40;;;;;;;38.92;29.11;97655.50;109905;1245;71986;-67
2023/08/21 11:18:54;;;;;;;4.90;4.50;;;;;;;39.32;29.55;97649.59;109938;1244;69583;-66
2023/08/21 11:21:25;;;;;;;4.60;4.20;;;;;;;40.36;29.14;97648.90;109804;1248;69849;-66
2023/08/21 11:23:53;;;;;;;4.90;4.50;;;;;;;40.86;28.13;97647.04;109860;1248;59705;-66
2023/08/21 11:26:25;;;;;;;5.50;5.00;;;;;;;40.49;28.89;97642.44;109978;1246;59699;-66
2023/08/21 11:28:56;;;;;;;6.40;5.90;;;;;;;40.53;27.76;97636.23;109811;1245;71179;-66
2023/08/21 11:31:25;;;;;;;5.60;5.10;;;;;;;40.50;28.59;97631.15;109907;1244;69837;-66
2023/08/21 11:33:55;;;;;;;5.60;5.20;;;;;;;40.54;28.44;97632.71;109968;1244;69201;-66
2023/08/21 11:36:26;;;;;;;5.50;5.00;;;;;;;40.78;28.10;97627.46;109908;1244;59758;-66
2023/08/21 11:39:05;;;;;;;5.00;4.50;;;;;;;41.05;28.37;97624.81;109820;1244;59876;-67
2023/08/21 11:41:53;;;;;;;5.30;4.80;;;;;;;41.14;27.34;97625.02;109863;1244;71967;-66
2023/08/21 11:44:22;;;;;;;5.60;5.10;;;;;;;41.02;27.28;97626.02;109943;1245;69196;-66